sensor_id;sensor_type;location;lat;lon;timestamp;pressure;altitude;pressure_sealevel;temperature;humidity
22755;BME280;11544;42.020;23.094;2023-02-18T00:21:39;98143.56;;;1.84;89.86
22755;BME280;11544;42.020;23.094;2023-02-18T00:24:15;98146.81;;;1.71;90.74
22755;BME280;11544;42.020;23.094;2023-02-18T00:27:07;98142.25;;;1.53;91.91
22755;BME280;11544;42.020;23.094;2023-02-18T00:29:46;98137.28;;;2.29;90.29
22755;BME280;11544;42.020;23.094;2023-02-18T00:32:29;98128.19;;;2.57;88.11
22755;BME280;11544;42.020;23.094;2023-02-18T00:35:06;98137.69;;;1.93;87.95
22755;BME280;11544;42.020;23.094;2023-02-18T00:37:42;98140.56;;;1.55;89.99
22755;BME280;11544;42.020;23.094;2023-02-18T00:40:35;98139.03;;;1.67;91.66
22755;BME280;11544;42.020;23.094;2023-02-18T00:43:05;98131.63;;;1.87;91.58
22755;BME280;11544;42.020;23.094;2023-02-18T00:45:36;98131.75;;;1.97;91.41
22755;BME280;11544;42.020;23.094;2023-02-18T00:48:13;98121.59;;;2.06;90.60
22755;BME280;11544;42.020;23.094;2023-02-18T00:50:58;98123.97;;;1.94;90.33
22755;BME280;11544;42.020;23.094;2023-02-18T00:54:31;98110.53;;;2.15;90.27
22755;BME280;11544;42.020;23.094;2023-02-18T01:03:28;98092.38;;;2.02;91.86
22755;BME280;11544;42.020;23.094;2023-02-18T01:06:12;98090.75;;;1.45;91.23
22755;BME280;11544;42.020;23.094;2023-02-18T01:09:00;98085.38;;;1.28;93.79
22755;BME280;11544;42.020;23.094;2023-02-18T01:11:44;98088.06;;;0.84;95.46
22755;BME280;11544;42.020;23.094;2023-02-18T01:14:39;98077.88;;;0.89;96.75
22755;BME280;11544;42.020;23.094;2023-02-18T01:17:10;98070.06;;;0.82;97.70
22755;BME280;11544;42.020;23.094;2023-02-18T01:19:49;98073.03;;;1.05;97.38
22755;BME280;11544;42.020;23.094;2023-02-18T01:31:08;98060.50;;;1.27;94.75
22755;BME280;11544;42.020;23.094;2023-02-18T01:37:38;98051.09;;;1.90;94.22
22755;BME280;11544;42.020;23.094;2023-02-18T01:55:39;98047.28;;;1.59;94.85
22755;BME280;11544;42.020;23.094;2023-02-18T01:58:57;98037.06;;;1.65;94.62
22755;BME280;11544;42.020;23.094;2023-02-18T02:52:30;98099.47;;;0.51;100.00
22755;BME280;11544;42.020;23.094;2023-02-18T02:55:54;98095.59;;;0.73;100.00
22755;BME280;11544;42.020;23.094;2023-02-18T02:58:41;98092.59;;;0.49;100.00
22755;BME280;11544;42.020;23.094;2023-02-18T03:29:18;98099.31;;;-0.02;100.00
22755;BME280;11544;42.020;23.094;2023-02-18T03:31:54;98097.84;;;0.55;100.00
22755;BME280;11544;42.020;23.094;2023-02-18T03:34:30;98101.44;;;0.20;100.00
22755;BME280;11544;42.020;23.094;2023-02-18T03:37:01;98104.06;;;0.24;100.00
22755;BME280;11544;42.020;23.094;2023-02-18T03:39:31;98117.34;;;0.47;100.00
22755;BME280;11544;42.020;23.094;2023-02-18T03:41:59;98114.78;;;0.47;100.00
22755;BME280;11544;42.020;23.094;2023-02-18T03:44:30;98113.22;;;0.55;100.00
22755;BME280;11544;42.020;23.094;2023-02-18T03:47:33;98112.59;;;0.23;100.00
22755;BME280;11544;42.020;23.094;2023-02-18T04:02:12;98104.81;;;0.63;100.00
22755;BME280;11544;42.020;23.094;2023-02-18T04:05:27;98104.25;;;0.80;100.00
22755;BME280;11544;42.020;23.094;2023-02-18T04:08:50;98106.13;;;0.41;100.00
22755;BME280;11544;42.020;23.094;2023-02-18T04:12:16;98118.06;;;-0.03;100.00
22755;BME280;11544;42.020;23.094;2023-02-18T04:15:13;98120.13;;;0.59;100.00
22755;BME280;11544;42.020;23.094;2023-02-18T04:17:46;98114.44;;;0.74;100.00
22755;BME280;11544;42.020;23.094;2023-02-18T04:20:22;98124.09;;;0.41;100.00
22755;BME280;11544;42.020;23.094;2023-02-18T04:23:00;98119.19;;;0.10;100.00
22755;BME280;11544;42.020;23.094;2023-02-18T04:25:44;98137.56;;;-0.10;100.00
22755;BME280;11544;42.020;23.094;2023-02-18T04:28:14;98137.97;;;0.09;100.00
22755;BME280;11544;42.020;23.094;2023-02-18T04:30:46;98145.28;;;0.33;100.00
22755;BME280;11544;42.020;23.094;2023-02-18T04:33:16;98153.97;;;0.38;100.00
22755;BME280;11544;42.020;23.094;2023-02-18T04:35:43;98157.72;;;0.13;100.00
22755;BME280;11544;42.020;23.094;2023-02-18T04:38:10;98159.19;;;0.02;100.00
22755;BME280;11544;42.020;23.094;2023-02-18T04:40:37;98172.50;;;-0.15;100.00
22755;BME280;11544;42.020;23.094;2023-02-18T04:43:05;98167.13;;;0.12;100.00
22755;BME280;11544;42.020;23.094;2023-02-18T04:45:37;98165.38;;;0.11;100.00
22755;BME280;11544;42.020;23.094;2023-02-18T04:48:05;98165.97;;;-0.02;100.00
22755;BME280;11544;42.020;23.094;2023-02-18T04:50:34;98174.16;;;-0.17;100.00
22755;BME280;11544;42.020;23.094;2023-02-18T04:53:15;98170.41;;;0.07;100.00
22755;BME280;11544;42.020;23.094;2023-02-18T04:55:51;98177.47;;;-0.23;100.00
22755;BME280;11544;42.020;23.094;2023-02-18T05:37:04;98173.00;;;-0.68;100.00
22755;BME280;11544;42.020;23.094;2023-02-18T05:43:22;98176.28;;;-0.37;100.00
22755;BME280;11544;42.020;23.094;2023-02-18T05:46:04;98162.53;;;0.38;100.00
22755;BME280;11544;42.020;23.094;2023-02-18T05:48:45;98164.91;;;-0.12;100.00
22755;BME280;11544;42.020;23.094;2023-02-18T05:51:17;98162.28;;;0.28;100.00
22755;BME280;11544;42.020;23.094;2023-02-18T05:53:53;98153.66;;;-0.17;100.00
22755;BME280;11544;42.020;23.094;2023-02-18T05:56:39;98154.03;;;0.00;100.00
22755;BME280;11544;42.020;23.094;2023-02-18T05:59:18;98160.16;;;0.49;100.00
22755;BME280;11544;42.020;23.094;2023-02-18T06:01:55;98166.50;;;0.26;100.00
22755;BME280;11544;42.020;23.094;2023-02-18T06:04:28;98166.97;;;0.49;100.00
22755;BME280;11544;42.020;23.094;2023-02-18T06:07:06;98170.25;;;0.86;100.00
22755;BME280;11544;42.020;23.094;2023-02-18T06:13:18;98169.41;;;1.35;100.00
22755;BME280;11544;42.020;23.094;2023-02-18T06:15:56;98159.63;;;1.16;100.00
22755;BME280;11544;42.020;23.094;2023-02-18T06:18:44;98163.50;;;2.00;100.00
22755;BME280;11544;42.020;23.094;2023-02-18T06:25:01;98158.84;;;1.73;94.03
22755;BME280;11544;42.020;23.094;2023-02-18T06:27:28;98166.63;;;1.78;92.68
22755;BME280;11544;42.020;23.094;2023-02-18T06:56:11;98164.44;;;2.05;89.81
22755;BME280;11544;42.020;23.094;2023-02-18T06:58:41;98167.13;;;1.54;88.57
22755;BME280;11544;42.020;23.094;2023-02-18T07:01:09;98166.94;;;1.99;86.48
22755;BME280;11544;42.020;23.094;2023-02-18T07:03:39;98169.16;;;1.76;87.04
22755;BME280;11544;42.020;23.094;2023-02-18T07:06:26;98166.34;;;2.19;85.07
22755;BME280;11544;42.020;23.094;2023-02-18T07:08:56;98168.72;;;2.03;85.21
22755;BME280;11544;42.020;23.094;2023-02-18T07:11:26;98162.44;;;2.51;83.35
22755;BME280;11544;42.020;23.094;2023-02-18T07:13:53;98159.59;;;2.28;82.19
22755;BME280;11544;42.020;23.094;2023-02-18T07:16:20;98158.59;;;2.92;80.79
22755;BME280;11544;42.020;23.094;2023-02-18T07:25:41;98143.63;;;2.56;79.59
22755;BME280;11544;42.020;23.094;2023-02-18T07:28:22;98148.94;;;2.71;83.22
22755;BME280;11544;42.020;23.094;2023-02-18T07:31:15;98147.56;;;3.07;80.29
22755;BME280;11544;42.020;23.094;2023-02-18T08:02:02;98129.13;;;3.62;80.57
22755;BME280;11544;42.020;23.094;2023-02-18T11:37:26;97810.50;;;11.57;49.49
22755;BME280;11544;42.020;23.094;2023-02-18T11:39:54;97806.34;;;11.79;48.34
22755;BME280;11544;42.020;23.094;2023-02-18T11:42:24;97802.81;;;11.80;47.76
22755;BME280;11544;42.020;23.094;2023-02-18T12:06:35;97756.56;;;12.12;46.12
22755;BME280;11544;42.020;23.094;2023-02-18T12:09:19;97755.28;;;12.50;46.39
22755;BME280;11544;42.020;23.094;2023-02-18T12:11:54;97746.97;;;12.38;45.55
22755;BME280;11544;42.020;23.094;2023-02-18T13:14:34;97674.03;;;14.53;39.69
22755;BME280;11544;42.020;23.094;2023-02-18T13:39:49;97629.59;;;15.81;45.99
22755;BME280;11544;42.020;23.094;2023-02-18T15:09:17;97598.78;;;14.35;36.79
22755;BME280;11544;42.020;23.094;2023-02-18T15:11:48;97600.84;;;14.47;36.81
22755;BME280;11544;42.020;23.094;2023-02-18T15:14:22;97594.03;;;14.43;37.83
22755;BME280;11544;42.020;23.094;2023-02-18T15:16:50;97598.50;;;14.22;38.21
22755;BME280;11544;42.020;23.094;2023-02-18T16:43:46;97625.00;;;11.86;51.90
22755;BME280;11544;42.020;23.094;2023-02-18T17:14:20;97648.13;;;10.58;49.32
22755;BME280;11544;42.020;23.094;2023-02-18T17:16:51;97655.34;;;10.50;49.62
22755;BME280;11544;42.020;23.094;2023-02-18T18:49:17;97643.34;;;9.04;55.05
22755;BME280;11544;42.020;23.094;2023-02-18T19:46:00;97654.47;;;8.25;60.25
22755;BME280;11544;42.020;23.094;2023-02-18T19:48:34;97654.81;;;8.08;61.00
22755;BME280;11544;42.020;23.094;2023-02-18T19:51:02;97664.38;;;8.04;61.35
22755;BME280;11544;42.020;23.094;2023-02-18T20:47:25;97679.13;;;6.91;70.10
22755;BME280;11544;42.020;23.094;2023-02-18T20:49:55;97678.00;;;7.10;69.04
22755;BME280;11544;42.020;23.094;2023-02-18T20:52:35;97676.41;;;6.98;68.82
22755;BME280;11544;42.020;23.094;2023-02-18T21:16:32;97666.34;;;6.78;70.63
22755;BME280;11544;42.020;23.094;2023-02-18T21:19:06;97665.25;;;6.93;70.71
22755;BME280;11544;42.020;23.094;2023-02-18T21:21:34;97652.84;;;7.15;68.99
22755;BME280;11544;42.020;23.094;2023-02-18T22:49:32;97662.28;;;5.72;80.21
22755;BME280;11544;42.020;23.094;2023-02-18T22:51:59;97650.13;;;5.84;80.40
22755;BME280;11544;42.020;23.094;2023-02-18T22:54:26;97657.41;;;5.39;80.25
22755;BME280;11544;42.020;23.094;2023-02-18T23:21:14;97665.44;;;4.99;85.45
22755;BME280;11544;42.020;23.094;2023-02-18T23:23:52;97654.06;;;5.23;86.20
